Terminal Aerodrome Forecast
Issued by NWS

Home | Current Version | Previous Version | Text Only | Print | Product List | Glossary On
Versions: 1 2 3 4 5 6 7 8 9 10 11 12 13 14 15 16 17 18 19 20 21 22 23 24 25 26 27
000
FTUS45 KABQ 271400 AAA
TAFLVS
TAF AMD
KLVS 271429Z 2714/2812 17013KT 3SM -SN BR SCT003 BKN007
      TEMPO 2714/2717 3/4SM -SN BR BKN003
     FM271700 19015G23KT 5SM BR SCT008 OVC015
     FM280000 16010KT 2SM -SN BR BKN008=

USA.gov is the U.S. government's official web portal to all federal, state and local government web resources and services.